createdAt,value
2022-08-17T00:00:05.766Z,3.92
2022-08-17T00:03:18.082Z,4.40
2022-08-17T00:05:55.455Z,4.60
2022-08-17T00:08:25.763Z,4.55
2022-08-17T00:10:54.784Z,4.72
2022-08-17T00:13:32.765Z,4.65
2022-08-17T00:16:07.412Z,5.10
2022-08-17T00:19:01.851Z,4.20
2022-08-17T00:21:23.781Z,4.50
2022-08-17T00:23:53.632Z,4.07
2022-08-17T00:26:43.144Z,4.22
2022-08-17T00:29:10.106Z,4.10
2022-08-17T00:31:47.527Z,4.80
2022-08-17T00:34:15.265Z,4.18
2022-08-17T00:36:42.746Z,3.83
2022-08-17T00:39:10.309Z,4.43
2022-08-17T00:41:42.256Z,5.28
2022-08-17T00:44:12.278Z,4.93
2022-08-17T00:46:42.659Z,5.03
2022-08-17T00:49:11.625Z,4.85
2022-08-17T00:51:45.059Z,4.47
2022-08-17T00:54:27.180Z,3.80
2022-08-17T00:57:02.954Z,4.37
2022-08-17T00:59:37.877Z,3.80
2022-08-17T01:02:06.908Z,3.80
2022-08-17T01:04:34.822Z,4.30
2022-08-17T01:07:04.485Z,4.07
2022-08-17T01:09:32.331Z,4.57
2022-08-17T01:12:00.439Z,4.55
2022-08-17T01:14:28.082Z,5.00
2022-08-17T01:16:55.928Z,4.90
2022-08-17T01:19:29.789Z,4.93
2022-08-17T01:22:03.927Z,4.95
2022-08-17T01:24:33.851Z,4.72
2022-08-17T01:27:02.242Z,4.25
2022-08-17T01:29:31.246Z,4.43
2022-08-17T01:32:02.335Z,4.40
2022-08-17T01:34:42.089Z,4.97
2022-08-17T01:37:13.636Z,4.80
2022-08-17T01:39:54.977Z,5.47
2022-08-17T01:42:40.416Z,4.95
2022-08-17T01:45:18.175Z,4.72
2022-08-17T01:47:46.185Z,4.18
2022-08-17T01:50:17.261Z,4.97
2022-08-17T01:52:46.197Z,5.12
2022-08-17T01:55:16.479Z,5.25
2022-08-17T01:57:45.715Z,5.05
2022-08-17T02:00:14.273Z,5.00
2022-08-17T02:02:42.723Z,4.15
2022-08-17T02:05:10.389Z,5.35
2022-08-17T02:07:59.700Z,4.60
2022-08-17T02:10:32.891Z,5.07
2022-08-17T02:13:03.651Z,4.90
2022-08-17T02:15:32.122Z,5.20
2022-08-17T02:17:59.605Z,5.20
2022-08-17T02:20:41.286Z,4.97
2022-08-17T02:23:12.141Z,4.95
2022-08-17T02:25:40.543Z,5.03
2022-08-17T02:28:08.101Z,5.22
2022-08-17T02:30:59.513Z,5.03
2022-08-17T02:33:23.499Z,5.40
2022-08-17T02:36:12.116Z,5.07
2022-08-17T02:38:40.706Z,5.18
2022-08-17T02:41:08.349Z,4.87
2022-08-17T02:43:36.176Z,4.40
2022-08-17T02:46:03.751Z,5.70
2022-08-17T02:48:32.049Z,5.22
2022-08-17T02:51:00.888Z,4.87
2022-08-17T02:53:35.551Z,5.57
2022-08-17T02:56:04.456Z,4.50
2022-08-17T02:58:35.818Z,6.12
2022-08-17T03:01:09.722Z,4.87
2022-08-17T03:03:37.754Z,5.10
2022-08-17T03:06:07.556Z,4.87
2022-08-17T03:08:36.402Z,6.03
2022-08-17T03:11:04.204Z,6.00
2022-08-17T03:13:31.998Z,5.05
2022-08-17T03:15:59.461Z,5.50
2022-08-17T03:18:28.025Z,5.05
2022-08-17T03:20:59.375Z,5.00
2022-08-17T03:23:27.611Z,5.93
2022-08-17T03:25:58.277Z,5.60
2022-08-17T03:28:26.249Z,6.03
2022-08-17T03:30:54.317Z,6.22
2022-08-17T03:33:22.373Z,6.28
2022-08-17T03:35:50.277Z,5.78
2022-08-17T03:38:18.303Z,4.85
2022-08-17T03:40:56.729Z,5.65
2022-08-17T03:43:31.547Z,4.55
2022-08-17T03:46:33.917Z,5.82
2022-08-17T03:49:25.635Z,5.65
2022-08-17T03:52:13.420Z,6.10
2022-08-17T03:55:00.838Z,5.05
2022-08-17T03:57:29.205Z,5.55
2022-08-17T03:59:57.167Z,5.85
2022-08-17T04:02:28.537Z,4.87
2022-08-17T04:04:56.803Z,4.37
2022-08-17T04:07:27.594Z,5.30
2022-08-17T04:09:55.254Z,6.30
2022-08-17T04:12:24.318Z,6.30
2022-08-17T04:14:54.757Z,5.93
2022-08-17T04:17:26.219Z,6.53
2022-08-17T04:19:54.381Z,5.45
2022-08-17T04:22:33.378Z,6.82
2022-08-17T04:25:16.941Z,6.30
2022-08-17T04:27:44.425Z,6.28
2022-08-17T04:30:12.814Z,5.85
2022-08-17T04:33:06.043Z,6.00
2022-08-17T04:35:39.432Z,6.53
2022-08-17T04:38:09.569Z,6.53
2022-08-17T04:40:55.973Z,5.80
2022-08-17T04:43:25.919Z,5.43
2022-08-17T04:46:02.805Z,6.12
2022-08-17T04:48:36.584Z,6.65
2022-08-17T04:53:42.476Z,6.18
2022-08-17T04:56:16.968Z,6.22
2022-08-17T04:58:49.753Z,6.00
2022-08-17T05:01:22.931Z,6.70
2022-08-17T05:03:53.565Z,5.87
2022-08-17T05:06:21.674Z,6.35
2022-08-17T05:08:49.576Z,6.10
2022-08-17T05:11:17.490Z,6.35
2022-08-17T05:13:45.346Z,6.60
2022-08-17T05:16:12.866Z,5.62
2022-08-17T05:18:40.370Z,7.10
2022-08-17T05:21:08.766Z,6.93
2022-08-17T05:23:42.676Z,6.53
2022-08-17T05:26:26.190Z,5.55
2022-08-17T05:28:57.113Z,6.80
2022-08-17T05:31:28.734Z,6.47
2022-08-17T05:33:56.343Z,7.32
2022-08-17T05:36:43.723Z,6.32
2022-08-17T05:39:15.983Z,7.50
2022-08-17T05:41:48.101Z,7.87
2022-08-17T05:44:16.451Z,6.57
2022-08-17T05:46:48.632Z,7.55
2022-08-17T05:49:19.303Z,6.72
2022-08-17T05:51:57.349Z,6.60
2022-08-17T05:54:34.541Z,6.97
2022-08-17T05:57:23.239Z,7.18
2022-08-17T06:00:07.525Z,6.55
2022-08-17T06:03:12.647Z,6.55
2022-08-17T06:06:01.309Z,6.37
2022-08-17T06:08:39.569Z,7.57
2022-08-17T06:11:23.103Z,6.68
2022-08-17T06:14:09.328Z,6.47
2022-08-17T06:16:44.014Z,6.85
2022-08-17T06:19:19.467Z,5.68
2022-08-17T06:21:50.317Z,6.00
2022-08-17T06:24:38.214Z,6.43
2022-08-17T06:27:36.734Z,5.55
2022-08-17T06:30:21.694Z,6.35
2022-08-17T06:32:51.160Z,6.00
2022-08-17T06:35:42.346Z,6.75
2022-08-17T06:38:37.565Z,6.05
2022-08-17T06:41:18.045Z,6.85
2022-08-17T06:43:50.869Z,5.97
2022-08-17T06:46:21.227Z,6.15
2022-08-17T06:49:25.376Z,6.53
2022-08-17T06:52:01.088Z,6.72
2022-08-17T06:54:48.988Z,6.12
2022-08-17T06:57:28.336Z,5.45
2022-08-17T07:00:00.146Z,5.47
2022-08-17T07:02:52.075Z,5.68
2022-08-17T07:05:34.397Z,5.70
2022-08-17T07:08:11.676Z,5.30
2022-08-17T07:10:44.942Z,6.15
2022-08-17T07:13:25.548Z,6.43
2022-08-17T07:15:58.493Z,6.80
2022-08-17T07:18:30.263Z,6.15
2022-08-17T07:21:07.481Z,9.88
2022-08-17T07:24:04.096Z,5.10
2022-08-17T07:26:31.857Z,10.82
2022-08-17T07:28:59.967Z,6.05
2022-08-17T07:33:25.908Z,6.75
2022-08-17T07:35:54.097Z,7.45
2022-08-17T07:38:33.240Z,6.03
2022-08-17T07:41:05.436Z,6.20
2022-08-17T07:43:41.969Z,6.20
2022-08-17T07:46:54.783Z,6.53
2022-08-17T07:49:33.853Z,5.82
2022-08-17T07:52:47.962Z,5.25
2022-08-17T07:54:54.491Z,5.50
2022-08-17T07:57:29.406Z,6.20
2022-08-17T08:00:01.485Z,6.05
2022-08-17T08:02:43.183Z,5.53
2022-08-17T08:05:13.020Z,5.32
2022-08-17T08:07:55.437Z,5.47
2022-08-17T08:10:38.585Z,5.43
2022-08-17T08:13:29.707Z,5.57
2022-08-17T08:16:21.387Z,5.12
2022-08-17T08:18:56.038Z,5.20
2022-08-17T08:21:49.333Z,5.82
2022-08-17T08:24:42.029Z,5.60
2022-08-17T08:27:27.193Z,5.97
2022-08-17T08:30:05.261Z,5.18
2022-08-17T08:33:08.525Z,5.05
2022-08-17T08:37:15.934Z,5.10
2022-08-17T08:39:43.700Z,5.47
2022-08-17T08:42:25.102Z,4.82
2022-08-17T08:45:16.123Z,4.95
2022-08-17T08:48:46.079Z,5.68
2022-08-17T08:51:33.342Z,4.65
2022-08-17T08:54:26.573Z,4.72
2022-08-17T08:57:25.124Z,4.22
2022-08-17T09:00:07.183Z,4.35
2022-08-17T09:02:40.846Z,4.78
2022-08-17T09:05:15.588Z,3.67
2022-08-17T09:08:00.121Z,4.07
2022-08-17T09:10:32.059Z,4.37
2022-08-17T09:13:10.212Z,4.45
2022-08-17T09:15:41.306Z,4.70
2022-08-17T09:19:03.216Z,4.37
2022-08-17T09:21:33.696Z,4.72
2022-08-17T09:24:05.839Z,4.68
2022-08-17T09:26:39.491Z,4.82
2022-08-17T09:29:13.905Z,4.75
2022-08-17T09:31:59.706Z,5.03
2022-08-17T09:34:38.990Z,4.30
2022-08-17T09:37:22.808Z,4.32
2022-08-17T09:40:14.161Z,4.22
2022-08-17T09:43:03.173Z,4.80
2022-08-17T09:45:39.717Z,4.60
2022-08-17T09:48:14.372Z,4.18
2022-08-17T09:51:03.894Z,4.20
2022-08-17T09:53:36.106Z,4.28
2022-08-17T09:56:14.135Z,4.62
2022-08-17T09:58:50.507Z,3.83
2022-08-17T10:01:24.126Z,3.50
2022-08-17T10:04:04.437Z,4.43
2022-08-17T10:06:43.734Z,4.55
2022-08-17T10:09:24.563Z,3.87
2022-08-17T10:12:20.526Z,3.80
2022-08-17T10:14:57.447Z,7.72
2022-08-17T10:17:36.665Z,4.07
2022-08-17T10:20:34.282Z,3.75
2022-08-17T10:23:34.631Z,3.80
2022-08-17T10:26:15.624Z,4.30
2022-08-17T10:29:13.354Z,3.53
2022-08-17T10:31:55.662Z,4.00
2022-08-17T10:35:09.012Z,3.70
2022-08-17T10:38:13.729Z,4.10
2022-08-17T10:40:53.428Z,3.22
2022-08-17T10:43:31.111Z,5.57
2022-08-17T10:46:10.496Z,4.22
2022-08-17T10:49:23.772Z,3.47
2022-08-17T10:51:56.289Z,3.80
2022-08-17T10:54:24.018Z,3.70
2022-08-17T10:56:56.572Z,3.67
2022-08-17T10:59:36.419Z,5.03
2022-08-17T11:02:16.217Z,7.32
2022-08-17T11:05:22.334Z,3.80
2022-08-17T11:07:58.901Z,4.37
2022-08-17T11:10:38.989Z,4.30
2022-08-17T11:13:43.183Z,4.32
2022-08-17T11:16:35.988Z,4.30
2022-08-17T11:19:28.617Z,4.72
2022-08-17T11:22:09.180Z,4.45
2022-08-17T11:24:43.359Z,4.57
2022-08-17T11:27:22.110Z,4.30
2022-08-17T11:30:12.857Z,4.50
2022-08-17T11:33:00.382Z,4.15
2022-08-17T11:35:48.520Z,4.22
2022-08-17T11:38:28.399Z,4.30
2022-08-17T11:41:14.757Z,3.95
2022-08-17T11:44:04.006Z,3.90
2022-08-17T11:47:15.066Z,3.58
2022-08-17T11:50:16.803Z,4.07
2022-08-17T11:52:47.986Z,4.93
2022-08-17T11:55:40.760Z,3.92
2022-08-17T11:58:37.413Z,4.12
2022-08-17T12:01:08.544Z,3.87
2022-08-17T12:03:38.950Z,3.80
2022-08-17T12:06:31.046Z,4.37
2022-08-17T12:09:20.208Z,3.22
2022-08-17T12:12:11.369Z,3.25
2022-08-17T12:15:11.368Z,3.53
2022-08-17T12:17:42.912Z,2.97
2022-08-17T12:20:29.570Z,2.90
2022-08-17T12:23:12.052Z,3.47
2022-08-17T12:25:47.884Z,2.97
2022-08-17T12:28:26.460Z,3.17
2022-08-17T12:30:57.055Z,3.17
2022-08-17T12:33:27.909Z,3.35
2022-08-17T12:35:59.683Z,2.90
2022-08-17T12:38:34.533Z,2.93
2022-08-17T12:41:25.609Z,3.47
2022-08-17T12:44:02.421Z,2.72
2022-08-17T12:46:44.939Z,3.00
2022-08-17T12:49:36.467Z,3.92
2022-08-17T12:52:20.348Z,3.08
2022-08-17T12:54:51.617Z,2.92
2022-08-17T12:57:33.133Z,3.17
2022-08-17T13:00:21.054Z,3.20
2022-08-17T13:02:52.104Z,2.95
2022-08-17T13:05:36.058Z,2.60
2022-08-17T13:10:39.161Z,2.60
2022-08-17T13:13:41.180Z,3.00
2022-08-17T13:16:11.609Z,2.87
2022-08-17T13:18:43.480Z,3.33
2022-08-17T13:21:20.006Z,2.70
2022-08-17T13:23:57.213Z,2.67
2022-08-17T13:26:30.024Z,2.65
2022-08-17T13:28:58.453Z,2.87
2022-08-17T13:31:27.923Z,2.62
2022-08-17T13:34:14.688Z,3.30
2022-08-17T13:36:44.058Z,2.90
2022-08-17T13:39:16.873Z,2.55
2022-08-17T13:41:44.959Z,2.90
2022-08-17T13:44:32.253Z,2.62
2022-08-17T13:47:02.043Z,2.35
2022-08-17T13:49:41.937Z,2.80
2022-08-17T13:52:32.091Z,2.65
2022-08-17T13:55:30.129Z,2.87
2022-08-17T13:58:05.052Z,2.97
2022-08-17T14:00:37.459Z,3.40
2022-08-17T14:03:08.975Z,3.08
2022-08-17T14:05:40.790Z,3.22
2022-08-17T14:08:12.008Z,3.13
2022-08-17T14:10:39.999Z,3.03
2022-08-17T14:13:07.901Z,3.33
2022-08-17T14:15:56.041Z,2.90
2022-08-17T14:18:50.650Z,3.40
2022-08-17T14:21:11.293Z,3.00
2022-08-17T14:23:39.320Z,2.97
2022-08-17T14:26:10.470Z,2.87
2022-08-17T14:28:38.800Z,3.28
2022-08-17T14:33:52.173Z,2.90
2022-08-17T14:36:19.802Z,2.85
2022-08-17T14:38:47.604Z,2.97
2022-08-17T14:41:21.455Z,2.58
2022-08-17T14:43:52.927Z,3.05
2022-08-17T14:46:20.545Z,2.95
2022-08-17T14:48:50.812Z,2.72
2022-08-17T14:51:23.318Z,2.70
2022-08-17T14:53:50.835Z,2.30
2022-08-17T14:56:18.450Z,2.62
2022-08-17T14:58:46.338Z,3.00
2022-08-17T15:01:14.441Z,2.67
2022-08-17T15:03:42.376Z,2.58
2022-08-17T15:06:14.762Z,2.58
2022-08-17T15:08:44.126Z,2.62
2022-08-17T15:11:14.443Z,2.20
2022-08-17T15:13:52.469Z,2.65
2022-08-17T15:16:20.954Z,3.12
2022-08-17T15:18:49.158Z,2.80
2022-08-17T15:21:19.261Z,2.90
2022-08-17T15:23:47.801Z,2.72
2022-08-17T15:26:15.358Z,2.85
2022-08-17T15:28:42.911Z,3.10
2022-08-17T15:31:10.846Z,3.20
2022-08-17T15:33:38.410Z,2.67
2022-08-17T15:36:07.449Z,2.55
2022-08-17T15:38:42.149Z,3.20
2022-08-17T15:41:15.384Z,2.87
2022-08-17T15:43:52.571Z,2.90
2022-08-17T15:46:25.645Z,3.00
2022-08-17T15:49:00.139Z,3.25
2022-08-17T15:51:36.517Z,2.70
2022-08-17T15:54:18.711Z,2.87
2022-08-17T15:59:17.339Z,2.97
2022-08-17T16:03:14.560Z,2.75
2022-08-17T16:04:43.964Z,2.72
2022-08-17T16:07:17.491Z,2.62
2022-08-17T16:09:45.528Z,2.65
2022-08-17T16:12:16.643Z,2.35
2022-08-17T16:14:47.183Z,2.30
2022-08-17T16:17:39.912Z,3.10
2022-08-17T16:20:03.735Z,2.62
2022-08-17T16:22:39.602Z,2.95
2022-08-17T16:25:17.566Z,2.80
2022-08-17T16:27:46.633Z,2.60
2022-08-17T16:30:17.565Z,3.33
2022-08-17T16:32:47.032Z,2.85
2022-08-17T16:35:18.542Z,2.65
2022-08-17T16:37:46.994Z,2.60
2022-08-17T16:40:18.127Z,2.60
2022-08-17T16:42:48.508Z,3.58
2022-08-17T16:45:20.238Z,3.00
2022-08-17T16:47:50.959Z,2.47
2022-08-17T16:50:23.091Z,2.65
2022-08-17T16:52:53.103Z,2.50
2022-08-17T16:55:22.316Z,2.65
2022-08-17T16:57:51.677Z,3.05
2022-08-17T17:00:20.961Z,2.87
2022-08-17T17:02:51.499Z,2.85
2022-08-17T17:05:19.391Z,2.45
2022-08-17T17:08:07.732Z,2.70
2022-08-17T17:10:48.461Z,2.97
2022-08-17T17:13:59.706Z,2.92
2022-08-17T17:16:53.040Z,2.80
2022-08-17T17:19:35.755Z,2.97
2022-08-17T17:24:56.548Z,2.85
2022-08-17T17:27:37.753Z,3.15
2022-08-17T17:30:16.199Z,3.58
2022-08-17T17:33:04.247Z,2.70
2022-08-17T17:35:57.125Z,2.80
2022-08-17T17:38:29.443Z,3.20
2022-08-17T17:41:04.535Z,3.08
2022-08-17T17:43:39.618Z,3.15
2022-08-17T17:46:28.706Z,3.53
2022-08-17T17:48:58.023Z,3.17
2022-08-17T17:52:06.888Z,3.25
2022-08-17T17:54:40.080Z,3.10
2022-08-17T17:57:24.687Z,3.50
2022-08-17T18:00:23.642Z,3.12
2022-08-17T18:03:15.233Z,2.95
2022-08-17T18:06:02.397Z,3.03
2022-08-17T18:08:49.779Z,2.70
2022-08-17T18:11:34.794Z,3.17
2022-08-17T18:14:30.829Z,3.37
2022-08-17T18:16:59.760Z,3.03
2022-08-17T18:19:32.976Z,3.12
2022-08-17T18:22:06.737Z,3.33
2022-08-17T18:27:25.808Z,2.60
2022-08-17T18:29:56.000Z,2.97
2022-08-17T18:32:27.651Z,2.95
2022-08-17T18:34:55.470Z,3.35
2022-08-17T18:37:42.705Z,2.90
2022-08-17T18:40:19.812Z,2.90
2022-08-17T18:43:08.769Z,3.10
2022-08-17T18:45:51.966Z,3.03
2022-08-17T18:48:37.128Z,3.35
2022-08-17T18:51:39.731Z,3.15
2022-08-17T18:54:21.529Z,2.80
2022-08-17T18:56:58.147Z,3.58
2022-08-17T18:59:45.422Z,3.42
2022-08-17T19:02:27.238Z,3.08
2022-08-17T19:05:10.652Z,3.53
2022-08-17T19:07:47.002Z,3.10
2022-08-17T19:10:25.174Z,3.10
2022-08-17T19:13:12.308Z,3.08
2022-08-17T19:16:11.752Z,3.10
2022-08-17T19:19:04.340Z,3.40
2022-08-17T19:21:40.431Z,3.10
2022-08-17T19:24:19.555Z,3.42
2022-08-17T19:26:56.688Z,3.10
2022-08-17T19:29:46.106Z,3.20
2022-08-17T19:32:20.164Z,3.08
2022-08-17T19:34:49.368Z,3.05
2022-08-17T19:37:40.881Z,3.65
2022-08-17T19:40:52.136Z,3.17
2022-08-17T19:43:33.103Z,3.75
2022-08-17T19:46:26.028Z,3.20
2022-08-17T19:49:00.308Z,3.67
2022-08-17T19:51:43.829Z,3.83
2022-08-17T19:54:34.419Z,3.42
2022-08-17T19:57:08.349Z,3.72
2022-08-17T20:00:08.734Z,3.25
2022-08-17T20:02:42.446Z,3.35
2022-08-17T20:05:16.903Z,3.80
2022-08-17T20:08:00.331Z,3.60
2022-08-17T20:10:48.110Z,3.83
2022-08-17T20:13:43.979Z,3.05
2022-08-17T20:16:12.250Z,3.53
2022-08-17T20:18:55.867Z,3.65
2022-08-17T20:21:29.111Z,3.70
2022-08-17T20:24:06.453Z,3.65
2022-08-17T20:26:51.241Z,3.37
2022-08-17T20:29:40.219Z,3.08
2022-08-17T20:32:17.828Z,3.58
2022-08-17T20:34:47.658Z,3.60
2022-08-17T20:37:15.263Z,3.67
2022-08-17T20:39:46.781Z,3.20
2022-08-17T20:42:20.666Z,3.50
2022-08-17T20:44:51.313Z,3.00
2022-08-17T20:47:28.608Z,2.90
2022-08-17T20:50:13.003Z,3.55
2022-08-17T20:52:46.977Z,2.72
2022-08-17T20:55:51.341Z,2.85
2022-08-17T20:58:37.076Z,3.20
2022-08-17T21:01:40.431Z,3.30
2022-08-17T21:04:47.392Z,3.42
2022-08-17T21:07:41.061Z,3.10
2022-08-17T21:10:35.711Z,3.50
2022-08-17T21:13:15.550Z,3.20
2022-08-17T21:15:48.604Z,3.65
2022-08-17T21:18:28.356Z,3.20
2022-08-17T21:21:24.252Z,3.55
2022-08-17T21:24:11.675Z,3.25
2022-08-17T21:26:58.213Z,3.70
2022-08-17T21:29:31.067Z,3.12
2022-08-17T21:32:05.512Z,3.70
2022-08-17T21:34:43.213Z,3.30
2022-08-17T21:37:20.314Z,3.33
2022-08-17T21:39:53.598Z,3.35
2022-08-17T21:42:34.020Z,3.60
2022-08-17T21:45:38.893Z,3.30
2022-08-17T21:48:14.536Z,3.47
2022-08-17T21:50:44.976Z,3.17
2022-08-17T21:53:21.740Z,3.25
2022-08-17T21:55:50.538Z,3.42
2022-08-17T21:58:40.417Z,3.22
2022-08-17T22:01:21.990Z,3.10
2022-08-17T22:04:01.715Z,3.22
2022-08-17T22:06:38.334Z,4.12
2022-08-17T22:09:10.694Z,3.10
2022-08-17T22:11:58.174Z,3.62
2022-08-17T22:14:52.913Z,3.10
2022-08-17T22:17:22.892Z,3.12
2022-08-17T22:19:54.078Z,3.55
2022-08-17T22:22:28.758Z,2.85
2022-08-17T22:24:59.416Z,3.62
2022-08-17T22:27:49.290Z,3.03
2022-08-17T22:30:26.159Z,3.37
2022-08-17T22:32:54.114Z,3.15
2022-08-17T22:35:32.630Z,3.22
2022-08-17T22:38:18.494Z,3.08
2022-08-17T22:40:52.018Z,3.25
2022-08-17T22:43:26.233Z,3.58
2022-08-17T22:45:56.918Z,3.95
2022-08-17T22:48:28.383Z,2.83
2022-08-17T22:51:13.947Z,3.62
2022-08-17T22:54:09.943Z,3.17
2022-08-17T22:56:56.985Z,3.03
2022-08-17T22:59:46.031Z,3.40
2022-08-17T23:02:19.251Z,3.25
2022-08-17T23:04:51.320Z,3.58
2022-08-17T23:07:20.661Z,4.10
2022-08-17T23:09:48.308Z,3.17
2022-08-17T23:12:23.621Z,3.75
2022-08-17T23:14:56.888Z,2.90
2022-08-17T23:17:24.509Z,3.10
2022-08-17T23:19:53.181Z,3.60
2022-08-17T23:22:20.751Z,3.58
2022-08-17T23:24:51.526Z,3.20
2022-08-17T23:27:20.265Z,3.65
2022-08-17T23:29:48.722Z,3.70
2022-08-17T23:32:17.907Z,3.20
2022-08-17T23:34:48.778Z,3.53
2022-08-17T23:37:17.863Z,3.47
2022-08-17T23:39:45.821Z,3.60
2022-08-17T23:42:17.412Z,3.60
2022-08-17T23:44:46.182Z,3.20
2022-08-17T23:47:14.664Z,3.28
2022-08-17T23:49:42.555Z,3.37
2022-08-17T23:52:15.148Z,3.90
2022-08-17T23:54:46.645Z,3.80
2022-08-17T23:57:16.813Z,3.37
2022-08-17T23:59:45.080Z,4.00
